sensor_id;sensor_type;location;lat;lon;timestamp;P1;durP1;ratioP1;P2;durP2;ratioP2
70153;SDS011;57519;51.494;-2.626;2023-04-25T00:02:11;11.97;;;6.20;;
70153;SDS011;57519;51.494;-2.626;2023-04-25T00:04:36;11.27;;;5.63;;
70153;SDS011;57519;51.494;-2.626;2023-04-25T00:07:03;15.37;;;6.73;;
70153;SDS011;57519;51.494;-2.626;2023-04-25T00:09:28;16.50;;;6.45;;
70153;SDS011;57519;51.494;-2.626;2023-04-25T00:11:54;17.50;;;7.17;;
70153;SDS011;57519;51.494;-2.626;2023-04-25T00:14:19;11.65;;;6.82;;
70153;SDS011;57519;51.494;-2.626;2023-04-25T00:16:45;13.83;;;7.30;;
70153;SDS011;57519;51.494;-2.626;2023-04-25T00:19:10;17.37;;;7.00;;
70153;SDS011;57519;51.494;-2.626;2023-04-25T00:21:36;14.50;;;6.65;;
70153;SDS011;57519;51.494;-2.626;2023-04-25T00:24:05;20.25;;;6.80;;
70153;SDS011;57519;51.494;-2.626;2023-04-25T00:26:31;12.23;;;7.20;;
70153;SDS011;57519;51.494;-2.626;2023-04-25T00:28:57;13.23;;;6.78;;
70153;SDS011;57519;51.494;-2.626;2023-04-25T00:31:22;15.67;;;7.00;;
70153;SDS011;57519;51.494;-2.626;2023-04-25T00:33:47;14.47;;;7.77;;
70153;SDS011;57519;51.494;-2.626;2023-04-25T00:36:13;14.40;;;6.50;;
70153;SDS011;57519;51.494;-2.626;2023-04-25T00:38:39;18.05;;;7.78;;
70153;SDS011;57519;51.494;-2.626;2023-04-25T00:41:08;13.07;;;7.57;;
70153;SDS011;57519;51.494;-2.626;2023-04-25T00:43:34;16.73;;;7.78;;
70153;SDS011;57519;51.494;-2.626;2023-04-25T00:46:01;17.77;;;8.27;;
70153;SDS011;57519;51.494;-2.626;2023-04-25T00:48:27;11.47;;;7.23;;
70153;SDS011;57519;51.494;-2.626;2023-04-25T00:50:53;17.25;;;7.22;;
70153;SDS011;57519;51.494;-2.626;2023-04-25T00:53:21;12.70;;;7.00;;
70153;SDS011;57519;51.494;-2.626;2023-04-25T00:55:47;12.40;;;7.05;;
70153;SDS011;57519;51.494;-2.626;2023-04-25T00:58:15;11.77;;;7.45;;
70153;SDS011;57519;51.494;-2.626;2023-04-25T01:00:46;24.50;;;9.27;;
70153;SDS011;57519;51.494;-2.626;2023-04-25T01:03:16;17.85;;;9.20;;
70153;SDS011;57519;51.494;-2.626;2023-04-25T01:05:42;14.90;;;8.20;;
70153;SDS011;57519;51.494;-2.626;2023-04-25T01:08:08;18.23;;;8.70;;
70153;SDS011;57519;51.494;-2.626;2023-04-25T01:10:35;18.85;;;8.85;;
70153;SDS011;57519;51.494;-2.626;2023-04-25T01:13:01;15.85;;;8.25;;
70153;SDS011;57519;51.494;-2.626;2023-04-25T01:15:26;19.77;;;9.07;;
70153;SDS011;57519;51.494;-2.626;2023-04-25T01:17:52;16.55;;;9.13;;
70153;SDS011;57519;51.494;-2.626;2023-04-25T01:20:19;15.77;;;8.23;;
70153;SDS011;57519;51.494;-2.626;2023-04-25T01:22:47;18.67;;;8.60;;
70153;SDS011;57519;51.494;-2.626;2023-04-25T01:25:12;14.77;;;9.32;;
70153;SDS011;57519;51.494;-2.626;2023-04-25T01:27:38;17.50;;;7.90;;
70153;SDS011;57519;51.494;-2.626;2023-04-25T01:30:05;18.98;;;9.57;;
70153;SDS011;57519;51.494;-2.626;2023-04-25T01:32:30;18.30;;;8.80;;
70153;SDS011;57519;51.494;-2.626;2023-04-25T01:35:05;13.43;;;8.43;;
70153;SDS011;57519;51.494;-2.626;2023-04-25T01:37:39;17.90;;;8.52;;
70153;SDS011;57519;51.494;-2.626;2023-04-25T01:40:05;14.80;;;7.57;;
70153;SDS011;57519;51.494;-2.626;2023-04-25T01:42:33;20.42;;;8.88;;
70153;SDS011;57519;51.494;-2.626;2023-04-25T01:45:00;17.50;;;7.03;;
70153;SDS011;57519;51.494;-2.626;2023-04-25T01:47:26;19.40;;;8.30;;
70153;SDS011;57519;51.494;-2.626;2023-04-25T01:49:51;16.75;;;8.98;;
70153;SDS011;57519;51.494;-2.626;2023-04-25T01:52:17;13.63;;;8.50;;
70153;SDS011;57519;51.494;-2.626;2023-04-25T01:54:42;16.37;;;8.13;;
70153;SDS011;57519;51.494;-2.626;2023-04-25T01:57:10;17.13;;;8.68;;
70153;SDS011;57519;51.494;-2.626;2023-04-25T01:59:36;16.92;;;8.35;;
70153;SDS011;57519;51.494;-2.626;2023-04-25T02:02:02;18.90;;;8.13;;
70153;SDS011;57519;51.494;-2.626;2023-04-25T02:04:29;22.08;;;8.73;;
70153;SDS011;57519;51.494;-2.626;2023-04-25T02:06:57;19.20;;;8.80;;
70153;SDS011;57519;51.494;-2.626;2023-04-25T02:09:23;16.60;;;8.00;;
70153;SDS011;57519;51.494;-2.626;2023-04-25T02:11:49;21.80;;;8.93;;
70153;SDS011;57519;51.494;-2.626;2023-04-25T02:14:14;11.67;;;7.30;;
70153;SDS011;57519;51.494;-2.626;2023-04-25T02:16:40;16.52;;;7.65;;
70153;SDS011;57519;51.494;-2.626;2023-04-25T02:19:05;16.70;;;7.87;;
70153;SDS011;57519;51.494;-2.626;2023-04-25T02:21:31;19.97;;;8.73;;
70153;SDS011;57519;51.494;-2.626;2023-04-25T02:23:57;15.77;;;7.80;;
70153;SDS011;57519;51.494;-2.626;2023-04-25T02:26:23;13.65;;;7.63;;
70153;SDS011;57519;51.494;-2.626;2023-04-25T02:28:49;13.40;;;7.45;;
70153;SDS011;57519;51.494;-2.626;2023-04-25T02:31:15;17.90;;;8.18;;
70153;SDS011;57519;51.494;-2.626;2023-04-25T02:33:41;14.60;;;8.30;;
70153;SDS011;57519;51.494;-2.626;2023-04-25T02:36:06;13.93;;;7.23;;
70153;SDS011;57519;51.494;-2.626;2023-04-25T02:38:32;11.35;;;6.80;;
70153;SDS011;57519;51.494;-2.626;2023-04-25T02:40:57;13.80;;;7.23;;
70153;SDS011;57519;51.494;-2.626;2023-04-25T02:43:23;13.80;;;6.77;;
70153;SDS011;57519;51.494;-2.626;2023-04-25T02:45:48;12.80;;;6.53;;
70153;SDS011;57519;51.494;-2.626;2023-04-25T02:48:13;14.10;;;6.80;;
70153;SDS011;57519;51.494;-2.626;2023-04-25T02:50:39;14.67;;;7.07;;
70153;SDS011;57519;51.494;-2.626;2023-04-25T02:53:04;10.67;;;7.10;;
70153;SDS011;57519;51.494;-2.626;2023-04-25T02:55:30;13.20;;;7.77;;
70153;SDS011;57519;51.494;-2.626;2023-04-25T02:57:55;10.32;;;7.20;;
70153;SDS011;57519;51.494;-2.626;2023-04-25T03:00:21;15.07;;;7.00;;
70153;SDS011;57519;51.494;-2.626;2023-04-25T03:02:47;12.88;;;7.10;;
70153;SDS011;57519;51.494;-2.626;2023-04-25T03:05:13;12.00;;;6.70;;
70153;SDS011;57519;51.494;-2.626;2023-04-25T03:07:38;14.50;;;6.97;;
70153;SDS011;57519;51.494;-2.626;2023-04-25T03:10:05;16.48;;;6.97;;
70153;SDS011;57519;51.494;-2.626;2023-04-25T03:12:31;13.75;;;6.47;;
70153;SDS011;57519;51.494;-2.626;2023-04-25T03:14:57;13.13;;;6.40;;
70153;SDS011;57519;51.494;-2.626;2023-04-25T03:17:22;10.87;;;6.30;;
70153;SDS011;57519;51.494;-2.626;2023-04-25T03:19:48;10.80;;;7.20;;
70153;SDS011;57519;51.494;-2.626;2023-04-25T03:22:13;14.75;;;6.38;;
70153;SDS011;57519;51.494;-2.626;2023-04-25T03:24:38;9.13;;;6.63;;
70153;SDS011;57519;51.494;-2.626;2023-04-25T03:27:05;12.18;;;6.78;;
70153;SDS011;57519;51.494;-2.626;2023-04-25T03:29:30;20.17;;;7.50;;
70153;SDS011;57519;51.494;-2.626;2023-04-25T03:31:56;12.40;;;6.80;;
70153;SDS011;57519;51.494;-2.626;2023-04-25T03:34:21;15.00;;;7.63;;
70153;SDS011;57519;51.494;-2.626;2023-04-25T03:36:46;13.88;;;6.53;;
70153;SDS011;57519;51.494;-2.626;2023-04-25T03:39:12;13.50;;;6.77;;
70153;SDS011;57519;51.494;-2.626;2023-04-25T03:41:37;13.23;;;7.93;;
70153;SDS011;57519;51.494;-2.626;2023-04-25T03:44:03;11.73;;;6.70;;
70153;SDS011;57519;51.494;-2.626;2023-04-25T03:46:28;21.77;;;7.65;;
70153;SDS011;57519;51.494;-2.626;2023-04-25T03:48:54;17.90;;;7.40;;
70153;SDS011;57519;51.494;-2.626;2023-04-25T03:51:19;13.10;;;7.13;;
70153;SDS011;57519;51.494;-2.626;2023-04-25T03:53:45;11.25;;;7.50;;
70153;SDS011;57519;51.494;-2.626;2023-04-25T03:56:10;16.00;;;7.10;;
70153;SDS011;57519;51.494;-2.626;2023-04-25T03:58:36;16.77;;;7.00;;
70153;SDS011;57519;51.494;-2.626;2023-04-25T04:01:01;10.07;;;6.60;;
70153;SDS011;57519;51.494;-2.626;2023-04-25T04:03:32;12.73;;;7.00;;
70153;SDS011;57519;51.494;-2.626;2023-04-25T04:05:59;12.38;;;7.45;;
70153;SDS011;57519;51.494;-2.626;2023-04-25T04:08:25;9.93;;;6.87;;
70153;SDS011;57519;51.494;-2.626;2023-04-25T04:10:50;14.77;;;8.27;;
70153;SDS011;57519;51.494;-2.626;2023-04-25T04:13:16;15.23;;;7.23;;
70153;SDS011;57519;51.494;-2.626;2023-04-25T04:15:41;13.23;;;6.53;;
70153;SDS011;57519;51.494;-2.626;2023-04-25T04:18:07;16.13;;;7.40;;
70153;SDS011;57519;51.494;-2.626;2023-04-25T04:20:32;11.50;;;7.60;;
70153;SDS011;57519;51.494;-2.626;2023-04-25T04:22:57;14.50;;;7.50;;
70153;SDS011;57519;51.494;-2.626;2023-04-25T04:25:23;11.38;;;6.93;;
70153;SDS011;57519;51.494;-2.626;2023-04-25T04:27:49;16.23;;;7.80;;
70153;SDS011;57519;51.494;-2.626;2023-04-25T04:30:19;14.93;;;7.85;;
70153;SDS011;57519;51.494;-2.626;2023-04-25T04:32:54;14.07;;;7.85;;
70153;SDS011;57519;51.494;-2.626;2023-04-25T04:35:20;11.70;;;6.75;;
70153;SDS011;57519;51.494;-2.626;2023-04-25T04:37:46;14.00;;;7.27;;
70153;SDS011;57519;51.494;-2.626;2023-04-25T04:40:13;16.63;;;7.63;;
70153;SDS011;57519;51.494;-2.626;2023-04-25T04:42:40;15.65;;;8.77;;
70153;SDS011;57519;51.494;-2.626;2023-04-25T04:45:06;13.38;;;7.63;;
70153;SDS011;57519;51.494;-2.626;2023-04-25T04:47:33;16.77;;;7.90;;
70153;SDS011;57519;51.494;-2.626;2023-04-25T04:49:59;13.80;;;7.97;;
70153;SDS011;57519;51.494;-2.626;2023-04-25T04:52:24;16.38;;;8.65;;
70153;SDS011;57519;51.494;-2.626;2023-04-25T04:54:50;18.67;;;7.27;;
70153;SDS011;57519;51.494;-2.626;2023-04-25T04:57:15;17.67;;;8.30;;
70153;SDS011;57519;51.494;-2.626;2023-04-25T04:59:41;17.73;;;8.63;;
70153;SDS011;57519;51.494;-2.626;2023-04-25T05:02:07;15.40;;;7.50;;
70153;SDS011;57519;51.494;-2.626;2023-04-25T05:04:32;18.73;;;8.97;;
70153;SDS011;57519;51.494;-2.626;2023-04-25T05:06:58;13.60;;;7.20;;
70153;SDS011;57519;51.494;-2.626;2023-04-25T05:09:23;17.60;;;8.47;;
70153;SDS011;57519;51.494;-2.626;2023-04-25T05:11:51;21.67;;;8.57;;
70153;SDS011;57519;51.494;-2.626;2023-04-25T05:14:17;12.75;;;7.68;;
70153;SDS011;57519;51.494;-2.626;2023-04-25T05:16:43;17.37;;;7.27;;
70153;SDS011;57519;51.494;-2.626;2023-04-25T05:19:08;18.10;;;8.27;;
70153;SDS011;57519;51.494;-2.626;2023-04-25T05:21:34;13.07;;;8.30;;
70153;SDS011;57519;51.494;-2.626;2023-04-25T05:23:59;13.27;;;7.20;;
70153;SDS011;57519;51.494;-2.626;2023-04-25T05:26:25;19.13;;;8.40;;
70153;SDS011;57519;51.494;-2.626;2023-04-25T05:28:51;13.38;;;6.45;;
70153;SDS011;57519;51.494;-2.626;2023-04-25T05:31:16;21.53;;;8.23;;
70153;SDS011;57519;51.494;-2.626;2023-04-25T05:33:41;13.27;;;7.23;;
70153;SDS011;57519;51.494;-2.626;2023-04-25T05:36:07;12.73;;;8.10;;
70153;SDS011;57519;51.494;-2.626;2023-04-25T05:38:33;12.20;;;7.17;;
70153;SDS011;57519;51.494;-2.626;2023-04-25T05:40:58;12.63;;;8.30;;
70153;SDS011;57519;51.494;-2.626;2023-04-25T05:43:24;14.23;;;7.75;;
70153;SDS011;57519;51.494;-2.626;2023-04-25T05:45:49;19.73;;;8.60;;
70153;SDS011;57519;51.494;-2.626;2023-04-25T05:48:15;14.77;;;7.70;;
70153;SDS011;57519;51.494;-2.626;2023-04-25T05:50:40;17.40;;;8.23;;
70153;SDS011;57519;51.494;-2.626;2023-04-25T05:53:06;15.07;;;7.47;;
70153;SDS011;57519;51.494;-2.626;2023-04-25T05:55:31;19.40;;;8.93;;
70153;SDS011;57519;51.494;-2.626;2023-04-25T05:57:57;15.98;;;7.55;;
70153;SDS011;57519;51.494;-2.626;2023-04-25T06:00:22;16.90;;;9.07;;
70153;SDS011;57519;51.494;-2.626;2023-04-25T06:02:48;16.90;;;9.47;;
70153;SDS011;57519;51.494;-2.626;2023-04-25T06:18:15;19.38;;;9.40;;
70153;SDS011;57519;51.494;-2.626;2023-04-25T06:24:02;18.52;;;9.23;;
70153;SDS011;57519;51.494;-2.626;2023-04-25T06:29:25;26.50;;;10.23;;
70153;SDS011;57519;51.494;-2.626;2023-04-25T06:31:57;22.80;;;10.27;;
70153;SDS011;57519;51.494;-2.626;2023-04-25T06:34:22;14.43;;;9.03;;
70153;SDS011;57519;51.494;-2.626;2023-04-25T06:40:25;23.30;;;9.23;;
70153;SDS011;57519;51.494;-2.626;2023-04-25T06:49:42;22.13;;;8.73;;
70153;SDS011;57519;51.494;-2.626;2023-04-25T06:55:30;15.53;;;8.00;;
70153;SDS011;57519;51.494;-2.626;2023-04-25T07:21:58;8.60;;;5.80;;
70153;SDS011;57519;51.494;-2.626;2023-04-25T07:24:23;12.25;;;6.82;;
70153;SDS011;57519;51.494;-2.626;2023-04-25T08:09:05;10.90;;;5.07;;
70153;SDS011;57519;51.494;-2.626;2023-04-25T08:14:56;10.87;;;5.20;;
70153;SDS011;57519;51.494;-2.626;2023-04-25T08:47:35;11.60;;;5.43;;
70153;SDS011;57519;51.494;-2.626;2023-04-25T08:53:31;5.18;;;4.38;;
70153;SDS011;57519;51.494;-2.626;2023-04-25T08:59:19;9.43;;;4.87;;
70153;SDS011;57519;51.494;-2.626;2023-04-25T09:05:06;7.75;;;4.03;;
70153;SDS011;57519;51.494;-2.626;2023-04-25T09:10:56;11.43;;;5.07;;
70153;SDS011;57519;51.494;-2.626;2023-04-25T09:17:03;7.13;;;3.90;;
70153;SDS011;57519;51.494;-2.626;2023-04-25T09:19:33;10.95;;;5.30;;
70153;SDS011;57519;51.494;-2.626;2023-04-25T09:22:01;9.20;;;4.73;;
70153;SDS011;57519;51.494;-2.626;2023-04-25T09:30:31;5.15;;;4.38;;
70153;SDS011;57519;51.494;-2.626;2023-04-25T09:33:08;9.85;;;4.78;;
70153;SDS011;57519;51.494;-2.626;2023-04-25T09:35:35;6.17;;;4.63;;
70153;SDS011;57519;51.494;-2.626;2023-04-25T09:38:11;11.23;;;5.03;;
70153;SDS011;57519;51.494;-2.626;2023-04-25T09:40:39;7.00;;;4.10;;
70153;SDS011;57519;51.494;-2.626;2023-04-25T09:43:18;6.88;;;3.55;;
70153;SDS011;57519;51.494;-2.626;2023-04-25T09:45:47;8.35;;;4.22;;
70153;SDS011;57519;51.494;-2.626;2023-04-25T09:48:21;7.57;;;4.67;;
70153;SDS011;57519;51.494;-2.626;2023-04-25T09:53:44;8.82;;;4.60;;
70153;SDS011;57519;51.494;-2.626;2023-04-25T09:56:12;7.57;;;4.60;;
70153;SDS011;57519;51.494;-2.626;2023-04-25T09:58:41;8.23;;;4.75;;
70153;SDS011;57519;51.494;-2.626;2023-04-25T10:01:08;9.87;;;4.53;;
70153;SDS011;57519;51.494;-2.626;2023-04-25T10:03:35;10.20;;;4.75;;
70153;SDS011;57519;51.494;-2.626;2023-04-25T10:06:06;11.13;;;4.50;;
70153;SDS011;57519;51.494;-2.626;2023-04-25T10:08:34;6.22;;;4.53;;
70153;SDS011;57519;51.494;-2.626;2023-04-25T10:11:02;6.88;;;3.97;;
70153;SDS011;57519;51.494;-2.626;2023-04-25T10:13:34;8.67;;;4.30;;
70153;SDS011;57519;51.494;-2.626;2023-04-25T10:16:12;10.10;;;4.78;;
70153;SDS011;57519;51.494;-2.626;2023-04-25T10:18:38;6.63;;;3.70;;
70153;SDS011;57519;51.494;-2.626;2023-04-25T10:21:04;11.23;;;4.50;;
70153;SDS011;57519;51.494;-2.626;2023-04-25T10:23:31;12.77;;;4.82;;
70153;SDS011;57519;51.494;-2.626;2023-04-25T10:25:59;10.02;;;3.65;;
70153;SDS011;57519;51.494;-2.626;2023-04-25T10:28:25;7.07;;;4.28;;
70153;SDS011;57519;51.494;-2.626;2023-04-25T10:31:01;6.13;;;3.40;;
70153;SDS011;57519;51.494;-2.626;2023-04-25T10:33:38;6.68;;;4.43;;
70153;SDS011;57519;51.494;-2.626;2023-04-25T10:36:12;11.55;;;4.60;;
70153;SDS011;57519;51.494;-2.626;2023-04-25T10:38:47;5.65;;;4.03;;
70153;SDS011;57519;51.494;-2.626;2023-04-25T10:41:13;7.57;;;3.87;;
70153;SDS011;57519;51.494;-2.626;2023-04-25T10:43:40;7.18;;;3.53;;
70153;SDS011;57519;51.494;-2.626;2023-04-25T10:48:57;5.63;;;4.03;;
70153;SDS011;57519;51.494;-2.626;2023-04-25T10:51:25;10.18;;;4.47;;
70153;SDS011;57519;51.494;-2.626;2023-04-25T10:53:59;10.23;;;4.20;;
70153;SDS011;57519;51.494;-2.626;2023-04-25T10:56:39;6.13;;;3.60;;
70153;SDS011;57519;51.494;-2.626;2023-04-25T11:01:42;6.47;;;3.50;;
70153;SDS011;57519;51.494;-2.626;2023-04-25T11:04:22;7.85;;;4.63;;
70153;SDS011;57519;51.494;-2.626;2023-04-25T11:09:32;7.20;;;4.45;;
70153;SDS011;57519;51.494;-2.626;2023-04-25T11:11:58;6.78;;;4.20;;
70153;SDS011;57519;51.494;-2.626;2023-04-25T11:14:31;17.52;;;5.47;;
70153;SDS011;57519;51.494;-2.626;2023-04-25T11:16:57;7.93;;;4.27;;
70153;SDS011;57519;51.494;-2.626;2023-04-25T11:19:24;5.28;;;3.58;;
70153;SDS011;57519;51.494;-2.626;2023-04-25T11:21:54;6.55;;;4.20;;
70153;SDS011;57519;51.494;-2.626;2023-04-25T11:24:25;7.18;;;3.97;;
70153;SDS011;57519;51.494;-2.626;2023-04-25T11:26:59;11.30;;;4.55;;
70153;SDS011;57519;51.494;-2.626;2023-04-25T11:29:30;8.77;;;3.70;;
70153;SDS011;57519;51.494;-2.626;2023-04-25T11:31:56;6.35;;;3.85;;
70153;SDS011;57519;51.494;-2.626;2023-04-25T11:34:29;7.93;;;3.88;;
70153;SDS011;57519;51.494;-2.626;2023-04-25T11:36:58;10.82;;;3.92;;
70153;SDS011;57519;51.494;-2.626;2023-04-25T11:39:25;8.85;;;4.30;;
70153;SDS011;57519;51.494;-2.626;2023-04-25T11:41:51;5.93;;;3.13;;
70153;SDS011;57519;51.494;-2.626;2023-04-25T11:44:18;7.30;;;3.80;;
70153;SDS011;57519;51.494;-2.626;2023-04-25T11:46:44;11.90;;;4.57;;
70153;SDS011;57519;51.494;-2.626;2023-04-25T11:49:11;10.20;;;4.00;;
70153;SDS011;57519;51.494;-2.626;2023-04-25T11:51:44;9.05;;;4.07;;
70153;SDS011;57519;51.494;-2.626;2023-04-25T11:54:10;8.00;;;3.73;;
70153;SDS011;57519;51.494;-2.626;2023-04-25T11:56:36;9.93;;;4.00;;
70153;SDS011;57519;51.494;-2.626;2023-04-25T11:59:04;9.38;;;4.20;;
70153;SDS011;57519;51.494;-2.626;2023-04-25T12:01:31;7.32;;;4.07;;
70153;SDS011;57519;51.494;-2.626;2023-04-25T12:04:17;6.93;;;4.28;;
70153;SDS011;57519;51.494;-2.626;2023-04-25T12:06:45;6.37;;;4.03;;
70153;SDS011;57519;51.494;-2.626;2023-04-25T12:09:15;7.75;;;3.80;;
70153;SDS011;57519;51.494;-2.626;2023-04-25T12:11:47;6.82;;;4.15;;
70153;SDS011;57519;51.494;-2.626;2023-04-25T12:14:20;5.05;;;3.63;;
70153;SDS011;57519;51.494;-2.626;2023-04-25T12:16:49;6.57;;;3.80;;
70153;SDS011;57519;51.494;-2.626;2023-04-25T12:19:16;5.10;;;3.70;;
70153;SDS011;57519;51.494;-2.626;2023-04-25T12:21:43;8.43;;;3.65;;
70153;SDS011;57519;51.494;-2.626;2023-04-25T12:26:48;8.80;;;4.22;;
70153;SDS011;57519;51.494;-2.626;2023-04-25T12:29:18;5.25;;;3.60;;
70153;SDS011;57519;51.494;-2.626;2023-04-25T12:31:49;5.27;;;3.57;;
70153;SDS011;57519;51.494;-2.626;2023-04-25T12:34:16;7.43;;;4.13;;
70153;SDS011;57519;51.494;-2.626;2023-04-25T12:36:42;7.25;;;4.07;;
70153;SDS011;57519;51.494;-2.626;2023-04-25T12:39:07;7.43;;;4.03;;
70153;SDS011;57519;51.494;-2.626;2023-04-25T12:41:33;6.78;;;3.60;;
70153;SDS011;57519;51.494;-2.626;2023-04-25T12:43:59;10.37;;;4.27;;
70153;SDS011;57519;51.494;-2.626;2023-04-25T12:46:24;6.10;;;3.22;;
70153;SDS011;57519;51.494;-2.626;2023-04-25T12:48:50;4.37;;;3.10;;
70153;SDS011;57519;51.494;-2.626;2023-04-25T12:51:15;4.97;;;3.17;;
70153;SDS011;57519;51.494;-2.626;2023-04-25T12:53:41;7.18;;;4.43;;
70153;SDS011;57519;51.494;-2.626;2023-04-25T12:56:07;8.07;;;3.57;;
70153;SDS011;57519;51.494;-2.626;2023-04-25T12:58:33;6.00;;;3.67;;
70153;SDS011;57519;51.494;-2.626;2023-04-25T13:00:58;8.77;;;4.57;;
70153;SDS011;57519;51.494;-2.626;2023-04-25T13:03:24;6.78;;;3.45;;
70153;SDS011;57519;51.494;-2.626;2023-04-25T13:05:50;8.60;;;3.53;;
70153;SDS011;57519;51.494;-2.626;2023-04-25T13:08:17;6.05;;;3.30;;
70153;SDS011;57519;51.494;-2.626;2023-04-25T13:10:43;10.38;;;3.95;;
70153;SDS011;57519;51.494;-2.626;2023-04-25T13:13:09;5.90;;;3.23;;
70153;SDS011;57519;51.494;-2.626;2023-04-25T13:15:34;8.93;;;4.20;;
70153;SDS011;57519;51.494;-2.626;2023-04-25T13:18:00;8.43;;;3.73;;
70153;SDS011;57519;51.494;-2.626;2023-04-25T13:20:25;8.18;;;3.97;;
70153;SDS011;57519;51.494;-2.626;2023-04-25T13:22:51;7.53;;;4.13;;
70153;SDS011;57519;51.494;-2.626;2023-04-25T13:25:17;7.67;;;3.97;;
70153;SDS011;57519;51.494;-2.626;2023-04-25T13:27:42;11.75;;;4.45;;
70153;SDS011;57519;51.494;-2.626;2023-04-25T13:30:09;11.57;;;4.13;;
70153;SDS011;57519;51.494;-2.626;2023-04-25T13:32:35;7.15;;;3.63;;
70153;SDS011;57519;51.494;-2.626;2023-04-25T13:35:04;9.48;;;4.32;;
70153;SDS011;57519;51.494;-2.626;2023-04-25T13:37:32;9.25;;;4.45;;
70153;SDS011;57519;51.494;-2.626;2023-04-25T13:40:01;9.77;;;4.60;;
70153;SDS011;57519;51.494;-2.626;2023-04-25T13:42:32;8.13;;;3.40;;
70153;SDS011;57519;51.494;-2.626;2023-04-25T13:44:57;8.38;;;4.30;;
70153;SDS011;57519;51.494;-2.626;2023-04-25T13:47:26;10.23;;;4.28;;
70153;SDS011;57519;51.494;-2.626;2023-04-25T13:49:52;12.17;;;4.30;;
70153;SDS011;57519;51.494;-2.626;2023-04-25T13:52:18;18.70;;;5.75;;
70153;SDS011;57519;51.494;-2.626;2023-04-25T13:54:43;12.33;;;4.57;;
70153;SDS011;57519;51.494;-2.626;2023-04-25T13:57:09;6.40;;;3.38;;
70153;SDS011;57519;51.494;-2.626;2023-04-25T13:59:36;9.57;;;4.28;;
70153;SDS011;57519;51.494;-2.626;2023-04-25T14:02:02;8.07;;;4.00;;
70153;SDS011;57519;51.494;-2.626;2023-04-25T14:04:27;10.00;;;3.90;;
70153;SDS011;57519;51.494;-2.626;2023-04-25T14:06:53;11.52;;;4.90;;
70153;SDS011;57519;51.494;-2.626;2023-04-25T14:09:19;9.87;;;3.83;;
70153;SDS011;57519;51.494;-2.626;2023-04-25T14:11:50;35.88;;;7.53;;
70153;SDS011;57519;51.494;-2.626;2023-04-25T14:14:17;10.32;;;4.30;;
70153;SDS011;57519;51.494;-2.626;2023-04-25T14:27:03;22.67;;;6.50;;
70153;SDS011;57519;51.494;-2.626;2023-04-25T14:29:29;8.70;;;4.47;;
70153;SDS011;57519;51.494;-2.626;2023-04-25T14:31:55;11.65;;;4.53;;
70153;SDS011;57519;51.494;-2.626;2023-04-25T14:34:22;20.17;;;4.75;;
70153;SDS011;57519;51.494;-2.626;2023-04-25T14:36:51;6.03;;;3.53;;
70153;SDS011;57519;51.494;-2.626;2023-04-25T15:05:41;16.80;;;5.70;;
70153;SDS011;57519;51.494;-2.626;2023-04-25T15:08:07;9.33;;;4.50;;
70153;SDS011;57519;51.494;-2.626;2023-04-25T15:10:33;9.25;;;4.30;;
70153;SDS011;57519;51.494;-2.626;2023-04-25T15:12:58;9.67;;;3.57;;
70153;SDS011;57519;51.494;-2.626;2023-04-25T15:15:24;7.38;;;3.80;;
70153;SDS011;57519;51.494;-2.626;2023-04-25T15:17:49;7.90;;;4.07;;
70153;SDS011;57519;51.494;-2.626;2023-04-25T15:20:15;9.23;;;3.90;;
70153;SDS011;57519;51.494;-2.626;2023-04-25T15:26:02;4.90;;;4.18;;
70153;SDS011;57519;51.494;-2.626;2023-04-25T15:28:28;5.80;;;4.00;;
70153;SDS011;57519;51.494;-2.626;2023-04-25T15:35:50;9.23;;;4.03;;
70153;SDS011;57519;51.494;-2.626;2023-04-25T15:38:16;6.38;;;3.67;;
70153;SDS011;57519;51.494;-2.626;2023-04-25T15:40:41;13.03;;;5.50;;
70153;SDS011;57519;51.494;-2.626;2023-04-25T15:43:07;8.25;;;3.55;;
70153;SDS011;57519;51.494;-2.626;2023-04-25T15:45:39;8.23;;;4.23;;
70153;SDS011;57519;51.494;-2.626;2023-04-25T15:48:05;5.47;;;3.53;;
70153;SDS011;57519;51.494;-2.626;2023-04-25T15:50:31;7.45;;;3.88;;
70153;SDS011;57519;51.494;-2.626;2023-04-25T15:52:57;8.07;;;4.10;;
70153;SDS011;57519;51.494;-2.626;2023-04-25T15:55:22;5.25;;;3.42;;
70153;SDS011;57519;51.494;-2.626;2023-04-25T15:57:51;6.30;;;4.25;;
70153;SDS011;57519;51.494;-2.626;2023-04-25T16:00:16;4.77;;;3.37;;
70153;SDS011;57519;51.494;-2.626;2023-04-25T16:02:43;6.88;;;3.53;;
70153;SDS011;57519;51.494;-2.626;2023-04-25T16:05:10;10.43;;;4.35;;
70153;SDS011;57519;51.494;-2.626;2023-04-25T16:07:37;6.40;;;3.57;;
70153;SDS011;57519;51.494;-2.626;2023-04-25T16:10:03;6.07;;;3.78;;
70153;SDS011;57519;51.494;-2.626;2023-04-25T16:12:30;9.60;;;4.50;;
70153;SDS011;57519;51.494;-2.626;2023-04-25T16:14:56;4.87;;;3.43;;
70153;SDS011;57519;51.494;-2.626;2023-04-25T16:17:25;7.28;;;3.80;;
70153;SDS011;57519;51.494;-2.626;2023-04-25T16:19:53;6.70;;;4.47;;
70153;SDS011;57519;51.494;-2.626;2023-04-25T16:22:19;7.03;;;3.40;;
70153;SDS011;57519;51.494;-2.626;2023-04-25T16:24:45;7.13;;;4.38;;
70153;SDS011;57519;51.494;-2.626;2023-04-25T16:27:10;7.17;;;4.23;;
70153;SDS011;57519;51.494;-2.626;2023-04-25T16:29:36;9.88;;;4.40;;
70153;SDS011;57519;51.494;-2.626;2023-04-25T16:32:02;6.53;;;3.97;;
70153;SDS011;57519;51.494;-2.626;2023-04-25T16:34:28;7.28;;;4.43;;
70153;SDS011;57519;51.494;-2.626;2023-04-25T16:36:54;6.45;;;4.05;;
70153;SDS011;57519;51.494;-2.626;2023-04-25T16:39:20;7.38;;;4.55;;
70153;SDS011;57519;51.494;-2.626;2023-04-25T16:41:46;6.50;;;4.37;;
70153;SDS011;57519;51.494;-2.626;2023-04-25T16:44:12;7.25;;;4.50;;
70153;SDS011;57519;51.494;-2.626;2023-04-25T16:46:38;7.73;;;4.27;;
70153;SDS011;57519;51.494;-2.626;2023-04-25T16:49:03;4.90;;;3.80;;
70153;SDS011;57519;51.494;-2.626;2023-04-25T16:51:29;8.10;;;3.80;;
70153;SDS011;57519;51.494;-2.626;2023-04-25T16:53:54;7.47;;;3.80;;
70153;SDS011;57519;51.494;-2.626;2023-04-25T16:56:20;5.68;;;3.38;;
70153;SDS011;57519;51.494;-2.626;2023-04-25T16:58:47;7.68;;;4.22;;
70153;SDS011;57519;51.494;-2.626;2023-04-25T17:01:12;5.67;;;3.97;;
70153;SDS011;57519;51.494;-2.626;2023-04-25T17:03:41;13.10;;;4.70;;
70153;SDS011;57519;51.494;-2.626;2023-04-25T17:06:08;7.68;;;3.80;;
70153;SDS011;57519;51.494;-2.626;2023-04-25T17:08:34;7.53;;;4.20;;
70153;SDS011;57519;51.494;-2.626;2023-04-25T17:11:00;4.70;;;3.43;;
70153;SDS011;57519;51.494;-2.626;2023-04-25T17:13:26;10.00;;;5.25;;
70153;SDS011;57519;51.494;-2.626;2023-04-25T17:15:51;27.80;;;7.18;;
70153;SDS011;57519;51.494;-2.626;2023-04-25T17:18:17;10.17;;;4.60;;
70153;SDS011;57519;51.494;-2.626;2023-04-25T17:20:42;6.40;;;4.43;;
70153;SDS011;57519;51.494;-2.626;2023-04-25T17:23:08;7.40;;;4.70;;
70153;SDS011;57519;51.494;-2.626;2023-04-25T17:25:33;6.22;;;3.97;;
70153;SDS011;57519;51.494;-2.626;2023-04-25T17:27:59;6.23;;;4.40;;
70153;SDS011;57519;51.494;-2.626;2023-04-25T17:30:27;10.23;;;4.27;;
70153;SDS011;57519;51.494;-2.626;2023-04-25T17:32:52;38.63;;;8.90;;
70153;SDS011;57519;51.494;-2.626;2023-04-25T17:35:18;7.32;;;4.43;;
70153;SDS011;57519;51.494;-2.626;2023-04-25T17:37:45;57.20;;;11.80;;
70153;SDS011;57519;51.494;-2.626;2023-04-25T17:40:18;10.30;;;4.23;;
70153;SDS011;57519;51.494;-2.626;2023-04-25T17:42:44;6.28;;;4.05;;
70153;SDS011;57519;51.494;-2.626;2023-04-25T17:47:45;63.27;;;12.10;;
70153;SDS011;57519;51.494;-2.626;2023-04-25T17:50:14;15.43;;;5.47;;
70153;SDS011;57519;51.494;-2.626;2023-04-25T17:52:41;12.35;;;4.90;;
70153;SDS011;57519;51.494;-2.626;2023-04-25T17:55:09;9.88;;;4.28;;
70153;SDS011;57519;51.494;-2.626;2023-04-25T17:57:34;38.73;;;9.57;;
70153;SDS011;57519;51.494;-2.626;2023-04-25T18:00:00;9.00;;;4.50;;
70153;SDS011;57519;51.494;-2.626;2023-04-25T18:05:01;6.00;;;4.03;;